Time;durP1;ratioP1;P1;durP2;ratioP2;P2;SDS_P1;SDS_P2;PMS_P1;PMS_P2;Temp;Humidity;BMP_temperature;BMP_pressure;BME280_temperature;BME280_humidity;BME280_pressure;Samples;Min_cycle;Max_cycle;Signal;HPM_P1;HPM_P2
2022/07/25 00:01:08;;;;;;;9.38;8.65;;;25.70;55.00;;;;;;4962968;28;20206;-75
2022/07/25 00:03:36;;;;;;;8.27;7.57;;;25.70;55.10;;;;;;4962541;28;20240;-75
2022/07/25 00:06:04;;;;;;;8.43;7.78;;;25.70;55.20;;;;;;4962469;28;20221;-74
2022/07/25 00:08:31;;;;;;;8.65;7.85;;;25.70;55.20;;;;;;4946103;28;20565;-76
2022/07/25 00:10:59;;;;;;;8.93;8.23;;;25.70;55.00;;;;;;4960955;28;20626;-77
2022/07/25 00:13:26;;;;;;;8.80;8.10;;;25.60;55.00;;;;;;4945688;28;20228;-75
2022/07/25 00:15:53;;;;;;;8.48;7.78;;;25.60;55.20;;;;;;4961086;28;20673;-76
2022/07/25 00:18:20;;;;;;;9.05;8.25;;;25.60;55.10;;;;;;4961803;28;20201;-77
2022/07/25 00:20:48;;;;;;;8.60;7.90;;;25.60;55.10;;;;;;4978115;28;20202;-75
2022/07/25 00:23:16;;;;;;;8.18;7.57;;;25.60;55.10;;;;;;4960598;28;20221;-77
2022/07/25 00:25:43;;;;;;;8.52;7.93;;;25.60;55.10;;;;;;4944758;28;20221;-75
2022/07/25 00:28:10;;;;;;;8.60;7.90;;;25.60;55.10;;;;;;4962032;28;20229;-75
2022/07/25 00:30:37;;;;;;;8.50;7.80;;;25.60;55.10;;;;;;4961516;28;20206;-75
2022/07/25 00:33:05;;;;;;;8.27;7.68;;;25.60;55.10;;;;;;4978689;28;20293;-75
2022/07/25 00:35:32;;;;;;;9.32;8.60;;;25.60;55.10;;;;;;4961892;28;20282;-77
2022/07/25 00:38:00;;;;;;;8.43;7.80;;;25.60;55.30;;;;;;4961479;28;20212;-76
2022/07/25 00:40:28;;;;;;;8.50;7.80;;;25.60;55.20;;;;;;4962103;28;20202;-76
2022/07/25 00:42:55;;;;;;;8.73;8.02;;;25.60;55.20;;;;;;4962425;28;20218;-74
2022/07/25 00:45:22;;;;;;;8.40;7.70;;;25.50;55.10;;;;;;4946980;28;20225;-74
2022/07/25 00:47:50;;;;;;;9.07;8.27;;;25.50;55.20;;;;;;4962463;28;20210;-77
2022/07/25 00:50:17;;;;;;;8.63;7.93;;;25.50;55.30;;;;;;4944722;28;20216;-76
2022/07/25 00:52:44;;;;;;;8.70;7.90;;;25.50;55.30;;;;;;4960124;28;20218;-75
2022/07/25 00:55:13;;;;;;;9.02;8.32;;;25.50;55.30;;;;;;4960240;28;20201;-76
2022/07/25 00:57:40;;;;;;;8.60;7.90;;;25.50;56.00;;;;;;4960166;28;20221;-77
2022/07/25 01:00:10;;;;;;;8.48;7.88;;;25.50;55.40;;;;;;4977436;28;20198;-75
2022/07/25 01:02:37;;;;;;;8.50;7.85;;;25.40;55.30;;;;;;4960313;28;20225;-76
2022/07/25 01:05:04;;;;;;;8.90;8.20;;;25.40;55.40;;;;;;4960410;28;20198;-76
2022/07/25 01:07:32;;;;;;;8.65;8.05;;;25.40;55.40;;;;;;4944766;28;20193;-77
2022/07/25 01:09:59;;;;;;;8.25;7.55;;;25.40;55.40;;;;;;4960298;28;20198;-75
2022/07/25 01:12:27;;;;;;;9.10;8.30;;;25.40;55.40;;;;;;4960121;28;20213;-76
2022/07/25 01:14:54;;;;;;;8.55;7.85;;;25.40;55.40;;;;;;4960598;28;20229;-77
2022/07/25 01:17:21;;;;;;;8.43;7.72;;;25.40;55.50;;;;;;4977971;28;20200;-76
2022/07/25 01:19:50;;;;;;;8.32;7.72;;;25.40;55.50;;;;;;4978395;28;20244;-75
2022/07/25 01:22:19;;;;;;;8.85;8.15;;;25.40;55.50;;;;;;4961886;28;20265;-76
2022/07/25 01:24:46;;;;;;;8.80;8.10;;;25.30;55.40;;;;;;4963325;28;20190;-75
2022/07/25 01:27:13;;;;;;;8.98;8.27;;;25.30;55.50;;;;;;4962099;28;20222;-76
2022/07/25 01:29:40;;;;;;;8.73;8.13;;;25.30;55.40;;;;;;4961346;28;20584;-76
2022/07/25 01:32:08;;;;;;;8.45;7.75;;;25.30;55.60;;;;;;4961665;28;20253;-76
2022/07/25 01:34:34;;;;;;;8.82;8.13;;;25.30;55.40;;;;;;4961255;28;20269;-76
2022/07/25 01:37:02;;;;;;;8.95;8.23;;;25.30;56.20;;;;;;4961700;28;20549;-76
2022/07/25 01:39:30;;;;;;;8.65;7.95;;;25.30;55.60;;;;;;4944676;28;20649;-76
2022/07/25 01:41:58;;;;;;;8.50;7.80;;;25.30;55.60;;;;;;4961572;28;20198;-74
2022/07/25 01:44:25;;;;;;;9.65;8.63;;;25.30;55.50;;;;;;4961429;28;20218;-76
2022/07/25 01:46:52;;;;;;;8.25;7.55;;;25.30;55.50;;;;;;4961673;28;20229;-76
2022/07/25 01:49:19;;;;;;;8.68;7.97;;;25.30;55.60;;;;;;4962190;28;20202;-74
2022/07/25 01:51:47;;;;;;;8.70;8.10;;;25.30;55.60;;;;;;4961825;28;20571;-75
2022/07/25 01:54:14;;;;;;;8.48;7.85;;;25.30;55.60;;;;;;4960134;28;20253;-76
2022/07/25 01:56:45;;;;;;;8.23;7.63;;;25.20;55.60;;;;;;4944213;28;20653;-78
2022/07/25 01:59:12;;;;;;;8.43;7.72;;;25.20;55.50;;;;;;4944043;28;20245;-77
2022/07/25 02:01:39;;;;;;;8.60;7.95;;;25.20;55.50;;;;;;4960067;28;20205;-76
2022/07/25 02:04:06;;;;;;;9.38;8.57;;;25.20;55.60;;;;;;4959760;28;20277;-75
2022/07/25 02:06:34;;;;;;;8.48;7.78;;;25.20;55.60;;;;;;4962773;28;20685;-75
2022/07/25 02:09:01;;;;;;;8.70;8.02;;;25.20;55.50;;;;;;4933183;28;20655;-75
2022/07/25 02:11:29;;;;;;;8.75;8.15;;;25.20;55.60;;;;;;4962871;28;20202;-75
2022/07/25 02:13:57;;;;;;;8.98;8.27;;;25.20;55.50;;;;;;4963125;28;20720;-76
2022/07/25 02:16:25;;;;;;;8.73;8.02;;;25.20;55.60;;;;;;4962674;28;20198;-75
2022/07/25 02:18:52;;;;;;;8.48;7.78;;;25.10;55.60;;;;;;4963208;28;20226;-77
2022/07/25 02:21:19;;;;;;;8.60;8.00;;;25.10;55.60;;;;;;4963262;28;20198;-76
2022/07/25 02:23:46;;;;;;;8.93;8.23;;;25.10;55.60;;;;;;4946847;28;20312;-77
2022/07/25 02:26:14;;;;;;;8.48;7.85;;;25.10;55.60;;;;;;4980262;28;20226;-76
2022/07/25 02:28:41;;;;;;;8.50;7.85;;;25.10;55.50;;;;;;4962848;28;20206;-76
2022/07/25 02:31:10;;;;;;;8.98;8.27;;;25.10;55.60;;;;;;4962623;28;20204;-75
2022/07/25 02:33:37;;;;;;;8.43;7.72;;;25.10;55.60;;;;;;4962812;28;20778;-75
2022/07/25 02:36:05;;;;;;;8.23;7.63;;;25.10;55.50;;;;;;4962693;28;20266;-75
2022/07/25 02:38:32;;;;;;;9.13;8.43;;;25.10;55.50;;;;;;4962609;28;20265;-76
2022/07/25 02:40:59;;;;;;;8.68;7.82;;;25.10;55.60;;;;;;4946479;28;20194;-76
2022/07/25 02:43:27;;;;;;;7.82;7.22;;;25.10;55.50;;;;;;4962581;28;20317;-75
2022/07/25 02:45:54;;;;;;;8.52;7.82;;;25.10;55.30;;;;;;4946882;28;20218;-76
2022/07/25 02:48:22;;;;;;;8.43;7.72;;;25.10;55.40;;;;;;4962353;28;20218;-78
2022/07/25 02:50:50;;;;;;;8.65;7.95;;;25.10;55.40;;;;;;4965335;28;20202;-75
2022/07/25 02:53:17;;;;;;;8.10;7.50;;;25.10;55.50;;;;;;4964327;28;20273;-76
2022/07/25 02:55:44;;;;;;;8.43;7.80;;;25.00;55.40;;;;;;4963755;28;20198;-75
2022/07/25 02:58:11;;;;;;;8.68;7.97;;;25.00;55.50;;;;;;4963602;28;20206;-76
2022/07/25 03:00:39;;;;;;;8.80;8.10;;;25.00;55.40;;;;;;4962679;28;20656;-74
2022/07/25 03:03:06;;;;;;;8.20;7.60;;;25.00;55.30;;;;;;4962751;28;20217;-76
2022/07/25 03:05:36;;;;;;;8.98;8.27;;;25.00;55.20;;;;;;4931344;28;20213;-76
2022/07/25 03:08:03;;;;;;;8.88;8.10;;;25.00;55.30;;;;;;4962705;28;20202;-76
2022/07/25 03:10:30;;;;;;;8.85;8.15;;;25.00;55.20;;;;;;4946667;28;20249;-76
2022/07/25 03:12:58;;;;;;;8.60;7.90;;;25.00;55.20;;;;;;4946128;28;20316;-74
2022/07/25 03:15:25;;;;;;;8.75;8.05;;;25.00;55.20;;;;;;4946415;28;20205;-77
2022/07/25 03:17:52;;;;;;;8.60;8.00;;;25.00;55.30;;;;;;4961795;28;20202;-77
2022/07/25 03:20:19;;;;;;;8.77;8.00;;;25.00;55.20;;;;;;4962255;28;20201;-75
2022/07/25 03:22:48;;;;;;;8.68;8.07;;;25.00;55.30;;;;;;4961642;28;20683;-76
2022/07/25 03:25:15;;;;;;;9.57;8.88;;;24.90;55.30;;;;;;4962069;28;20202;-75
2022/07/25 03:27:42;;;;;;;8.93;8.15;;;25.00;55.40;;;;;;4962129;28;20230;-77
2022/07/25 03:30:11;;;;;;;8.63;7.93;;;25.00;55.30;;;;;;4945371;28;20208;-77
2022/07/25 03:32:38;;;;;;;9.57;8.68;;;25.00;55.30;;;;;;4961174;28;20214;-75
2022/07/25 03:35:06;;;;;;;8.85;8.15;;;25.00;55.30;;;;;;4962045;28;20214;-74
2022/07/25 03:37:33;;;;;;;9.30;8.50;;;25.00;55.30;;;;;;4961299;28;20221;-75
2022/07/25 03:40:02;;;;;;;8.93;8.23;;;25.00;55.30;;;;;;4961113;28;20669;-75
2022/07/25 03:42:29;;;;;;;9.18;8.38;;;25.00;55.20;;;;;;4961053;28;20257;-75
2022/07/25 03:44:56;;;;;;;9.00;8.27;;;25.00;55.20;;;;;;4961800;28;20194;-75
2022/07/25 03:47:23;;;;;;;9.30;8.50;;;25.00;55.20;;;;;;4961569;28;20222;-74
2022/07/25 03:49:51;;;;;;;8.70;8.00;;;25.00;55.10;;;;;;4961311;28;20230;-76
2022/07/25 03:52:18;;;;;;;9.30;8.60;;;25.00;55.20;;;;;;4961903;28;20578;-75
2022/07/25 03:54:45;;;;;;;9.27;8.48;;;25.00;55.10;;;;;;4946319;28;20278;-74
2022/07/25 03:57:13;;;;;;;9.35;8.55;;;25.10;55.20;;;;;;4961798;28;20191;-76
2022/07/25 03:59:40;;;;;;;9.40;8.50;;;25.10;55.10;;;;;;4961553;28;20202;-77
2022/07/25 04:02:08;;;;;;;9.50;8.70;;;25.10;55.20;;;;;;4961451;28;20200;-75
2022/07/25 04:04:35;;;;;;;9.10;8.40;;;25.10;55.20;;;;;;4945408;28;20595;-76
2022/07/25 04:07:02;;;;;;;9.13;8.43;;;25.10;55.20;;;;;;4960688;28;20228;-76
2022/07/25 04:09:30;;;;;;;10.32;9.43;;;25.10;55.60;;;;;;4960980;28;20202;-75
2022/07/25 04:11:57;;;;;;;10.40;9.45;;;25.00;55.60;;;;;;4960834;28;20570;-75
2022/07/25 04:14:25;;;;;;;10.13;9.23;;;24.90;56.00;;;;;;4961156;28;20225;-76
2022/07/25 04:16:52;;;;;;;10.25;9.30;;;24.60;56.60;;;;;;4961095;28;20205;-74
2022/07/25 04:19:20;;;;;;;10.82;9.80;;;24.40;57.80;;;;;;4961059;28;20205;-76
2022/07/25 04:21:47;;;;;;;10.48;9.68;;;24.10;57.80;;;;;;4960481;28;20229;-75
2022/07/25 04:24:14;;;;;;;11.07;9.98;;;23.90;58.30;;;;;;4960740;28;20696;-76
2022/07/25 04:26:41;;;;;;;10.63;9.73;;;23.80;58.80;;;;;;4960593;28;20776;-76
2022/07/25 04:29:08;;;;;;;10.35;9.45;;;23.70;59.20;;;;;;4960422;28;20628;-76
2022/07/25 04:31:37;;;;;;;10.70;9.63;;;23.60;59.50;;;;;;4960374;28;20281;-74
2022/07/25 04:34:04;;;;;;;10.52;9.70;;;23.50;59.50;;;;;;4961611;28;20213;-75
2022/07/25 04:36:31;;;;;;;12.45;10.40;;;23.50;59.70;;;;;;4960706;28;20193;-76
2022/07/25 04:38:58;;;;;;;10.70;9.80;;;23.50;59.70;;;;;;4962141;28;20198;-76
2022/07/25 04:41:25;;;;;;;11.18;10.15;;;23.40;59.90;;;;;;4963402;28;20576;-74
2022/07/25 04:43:52;;;;;;;10.55;9.65;;;23.40;59.80;;;;;;4961067;28;20298;-78
2022/07/25 04:46:19;;;;;;;10.00;9.10;;;23.40;60.00;;;;;;4961743;28;20288;-74
2022/07/25 04:48:48;;;;;;;10.43;9.48;;;23.40;60.20;;;;;;4948517;28;20325;-76
2022/07/25 04:51:15;;;;;;;10.40;9.50;;;23.40;60.10;;;;;;4976884;28;20194;-76
2022/07/25 04:53:44;;;;;;;11.55;10.35;;;23.40;60.20;;;;;;4943841;28;20253;-77
2022/07/25 04:56:11;;;;;;;11.23;10.25;;;23.50;60.20;;;;;;4959967;28;20226;-76
2022/07/25 04:58:39;;;;;;;10.68;9.68;;;23.60;60.20;;;;;;4959512;28;20210;-77
2022/07/25 05:01:07;;;;;;;10.52;9.52;;;23.80;59.30;;;;;;4959985;28;20209;-76
2022/07/25 05:03:34;;;;;;;10.32;9.43;;;24.10;58.40;;;;;;4976912;28;20586;-76
2022/07/25 05:06:03;;;;;;;10.25;9.18;;;24.40;58.00;;;;;;4960012;28;20190;-77
2022/07/25 05:08:30;;;;;;;9.65;8.75;;;24.60;57.40;;;;;;4960203;28;20313;-76
2022/07/25 05:10:57;;;;;;;9.32;8.52;;;24.90;56.80;;;;;;4960581;28;20194;-76
2022/07/25 05:13:24;;;;;;;9.57;8.77;;;25.10;56.20;;;;;;4960421;28;20670;-76
2022/07/25 05:15:51;;;;;;;9.80;9.00;;;25.30;55.80;;;;;;4961305;28;20198;-76
2022/07/25 05:18:18;;;;;;;9.65;8.95;;;25.40;55.30;;;;;;4961662;28;20228;-75
2022/07/25 05:20:46;;;;;;;9.20;8.40;;;25.60;54.80;;;;;;4961910;28;20194;-76
2022/07/25 05:23:14;;;;;;;9.90;8.93;;;25.80;54.60;;;;;;4960133;28;20683;-77
2022/07/25 05:25:41;;;;;;;9.98;9.15;;;25.90;54.30;;;;;;4960357;28;20684;-75
2022/07/25 05:28:08;;;;;;;9.70;8.80;;;26.00;54.00;;;;;;4959856;28;20684;-77
2022/07/25 05:30:35;;;;;;;9.48;8.65;;;26.20;53.60;;;;;;4944026;28;20198;-75
2022/07/25 05:33:02;;;;;;;9.18;8.40;;;26.30;53.40;;;;;;4959920;28;20220;-76
2022/07/25 05:35:29;;;;;;;9.35;8.55;;;26.40;53.80;;;;;;4960121;28;20616;-78
2022/07/25 05:37:57;;;;;;;9.48;8.68;;;26.40;53.00;;;;;;4959851;28;20194;-76
2022/07/25 05:40:25;;;;;;;9.80;8.90;;;26.50;53.00;;;;;;4961385;28;20210;-75
2022/07/25 05:42:52;;;;;;;9.50;8.70;;;26.60;52.70;;;;;;4963987;28;20222;-75
2022/07/25 05:45:19;;;;;;;9.23;8.52;;;26.60;52.60;;;;;;4964307;28;20571;-76
2022/07/25 05:47:46;;;;;;;9.60;8.77;;;26.60;52.50;;;;;;4964304;28;20309;-76
2022/07/25 05:50:13;;;;;;;9.18;8.38;;;26.70;52.40;;;;;;4947462;28;20209;-76
2022/07/25 05:52:41;;;;;;;8.75;8.05;;;26.80;52.30;;;;;;4963164;28;20255;-76
2022/07/25 05:55:09;;;;;;;9.30;8.50;;;26.90;52.30;;;;;;4964214;28;20205;-76
2022/07/25 05:57:37;;;;;;;8.88;8.07;;;27.10;51.80;;;;;;4963966;28;20285;-77
2022/07/25 06:00:05;;;;;;;9.40;8.60;;;27.30;51.20;;;;;;4963445;28;20291;-77
2022/07/25 06:02:32;;;;;;;9.60;8.80;;;27.50;50.90;;;;;;4963932;28;20669;-76
2022/07/25 06:04:59;;;;;;;9.45;8.65;;;27.60;50.40;;;;;;4963398;28;20664;-76
2022/07/25 06:07:26;;;;;;;9.45;8.60;;;27.80;50.80;;;;;;4963472;28;20218;-76
2022/07/25 06:09:53;;;;;;;9.45;8.65;;;27.90;49.90;;;;;;4963763;28;20197;-75
2022/07/25 06:12:20;;;;;;;9.40;8.60;;;28.00;49.80;;;;;;4963161;28;20193;-77
2022/07/25 06:14:49;;;;;;;9.65;8.85;;;28.10;49.40;;;;;;4963600;28;20200;-77
2022/07/25 06:17:16;;;;;;;9.45;8.55;;;28.20;49.20;;;;;;4980070;28;20225;-76
2022/07/25 06:19:43;;;;;;;9.50;8.70;;;28.20;49.00;;;;;;4962395;28;20205;-77
2022/07/25 06:22:10;;;;;;;9.73;8.55;;;28.40;48.80;;;;;;4961980;28;20209;-77
2022/07/25 06:24:37;;;;;;;8.80;8.10;;;28.40;48.60;;;;;;4961611;28;20279;-77
2022/07/25 06:27:04;;;;;;;8.75;7.97;;;28.50;48.50;;;;;;4961703;28;20225;-77
2022/07/25 06:29:32;;;;;;;8.93;8.13;;;28.60;48.30;;;;;;4961335;28;20244;-76
2022/07/25 06:32:00;;;;;;;8.77;7.97;;;28.60;48.00;;;;;;4961528;28;20221;-77
2022/07/25 06:34:27;;;;;;;8.68;7.97;;;28.70;47.90;;;;;;4961565;28;20608;-76
2022/07/25 06:36:56;;;;;;;8.98;8.18;;;28.80;47.60;;;;;;4961437;28;20296;-77
2022/07/25 06:39:23;;;;;;;8.80;8.07;;;28.90;47.50;;;;;;4961258;28;20676;-77
2022/07/25 06:41:50;;;;;;;9.00;8.30;;;29.00;47.50;;;;;;4961098;28;20256;-77
2022/07/25 06:44:17;;;;;;;8.90;8.20;;;29.10;47.30;;;;;;4961072;28;20763;-77
2022/07/25 06:46:45;;;;;;;8.95;8.18;;;29.10;47.00;;;;;;4961403;28;20194;-77
2022/07/25 06:49:13;;;;;;;8.05;7.45;;;29.20;47.00;;;;;;4945156;28;20683;-77
2022/07/25 06:51:40;;;;;;;8.60;7.90;;;29.20;46.80;;;;;;4977325;28;20218;-76
2022/07/25 06:54:07;;;;;;;8.90;8.05;;;29.30;46.60;;;;;;4961145;28;20221;-77
2022/07/25 06:56:34;;;;;;;8.20;7.45;;;29.30;46.40;;;;;;4961152;28;20208;-77
2022/07/25 06:59:01;;;;;;;8.35;7.65;;;29.40;46.40;;;;;;4961153;28;20284;-77
2022/07/25 07:01:29;;;;;;;8.90;8.00;;;29.50;46.30;;;;;;4961319;28;20284;-77
2022/07/25 07:03:55;;;;;;;8.32;7.63;;;29.50;46.20;;;;;;4961109;28;20225;-77
2022/07/25 07:06:24;;;;;;;7.78;7.13;;;29.60;46.10;;;;;;4961153;28;20221;-76
2022/07/25 07:08:54;;;;;;;8.20;7.50;;;29.70;45.90;;;;;;4960453;28;20289;-76
2022/07/25 07:11:22;;;;;;;7.95;7.25;;;29.70;45.80;;;;;;4960814;28;20632;-77
2022/07/25 07:13:49;;;;;;;8.02;7.22;;;29.80;45.70;;;;;;4960778;28;20308;-77
2022/07/25 07:16:16;;;;;;;7.97;7.30;;;29.80;45.40;;;;;;4960741;28;20206;-77
2022/07/25 07:18:43;;;;;;;7.85;7.22;;;29.90;45.40;;;;;;4960501;28;20199;-77
2022/07/25 07:21:10;;;;;;;7.32;6.72;;;30.00;45.30;;;;;;4961429;28;20670;-77
2022/07/25 07:23:39;;;;;;;7.85;7.15;;;30.00;45.20;;;;;;4961071;28;20257;-77
2022/07/25 07:26:06;;;;;;;7.82;7.22;;;30.10;45.70;;;;;;4960754;28;20201;-76
2022/07/25 07:28:33;;;;;;;8.00;7.40;;;30.20;45.00;;;;;;4960941;28;20224;-75
2022/07/25 07:31:00;;;;;;;7.55;6.85;;;30.20;44.80;;;;;;4959381;28;20202;-75
2022/07/25 07:33:27;;;;;;;8.18;7.50;;;30.20;44.60;;;;;;4959943;28;20239;-77
2022/07/25 07:35:55;;;;;;;7.97;7.38;;;30.30;44.50;;;;;;4959988;28;20600;-77
2022/07/25 07:38:22;;;;;;;8.00;7.40;;;30.40;44.40;;;;;;4960850;28;20277;-76
2022/07/25 07:40:51;;;;;;;7.90;7.05;;;30.40;44.30;;;;;;4960299;28;20693;-76
2022/07/25 07:43:18;;;;;;;8.00;7.40;;;30.40;44.10;;;;;;4960303;28;20227;-76
2022/07/25 07:45:45;;;;;;;7.75;7.15;;;30.50;44.00;;;;;;4960066;28;20224;-76
2022/07/25 07:48:12;;;;;;;7.57;6.88;;;30.50;44.00;;;;;;4960232;28;20221;-77
2022/07/25 07:50:40;;;;;;;7.80;7.10;;;30.60;44.00;;;;;;4960370;28;20225;-76
2022/07/25 07:53:07;;;;;;;8.57;7.88;;;30.60;43.80;;;;;;4960201;28;20217;-77
2022/07/25 07:55:47;;;;;;;8.18;7.47;;;30.60;43.80;;;;;;4960284;28;20201;-75
2022/07/25 07:58:16;;;;;;;8.13;7.32;;;30.70;43.70;;;;;;4959910;28;20206;-76
2022/07/25 08:00:44;;;;;;;8.20;7.50;;;30.70;43.70;;;;;;4960207;28;20197;-76
2022/07/25 08:03:11;;;;;;;7.65;7.05;;;30.70;43.60;;;;;;4959639;28;20276;-76
2022/07/25 08:05:40;;;;;;;7.57;7.00;;;30.70;43.60;;;;;;4959687;28;20664;-76
2022/07/25 08:08:08;;;;;;;7.18;6.50;;;30.70;43.60;;;;;;4960046;28;20217;-78
2022/07/25 08:10:36;;;;;;;7.40;6.70;;;30.80;43.60;;;;;;4960597;28;20559;-77
2022/07/25 08:13:03;;;;;;;7.80;7.20;;;30.80;43.60;;;;;;4960497;28;20248;-76
2022/07/25 08:15:32;;;;;;;7.88;7.28;;;30.70;43.50;;;;;;4959851;28;20268;-76
2022/07/25 08:17:59;;;;;;;7.65;7.13;;;30.80;43.50;;;;;;4960440;28;20193;-76
2022/07/25 08:20:26;;;;;;;7.45;6.75;;;30.80;43.50;;;;;;4960660;28;20216;-75
2022/07/25 08:22:54;;;;;;;7.65;7.05;;;30.80;43.50;;;;;;4964432;28;20209;-75
2022/07/25 08:25:21;;;;;;;7.28;6.72;;;30.80;43.40;;;;;;4946173;28;20232;-75
2022/07/25 08:27:48;;;;;;;7.57;6.97;;;30.80;43.40;;;;;;4960871;28;20783;-77
2022/07/25 08:30:15;;;;;;;7.55;6.90;;;30.80;43.40;;;;;;4959788;28;20197;-78
2022/07/25 08:32:51;;;;;;;7.80;7.20;;;30.80;43.50;;;;;;4944340;28;20252;-77
2022/07/25 08:35:18;;;;;;;7.28;6.78;;;30.80;43.60;;;;;;4961328;28;20251;-77
2022/07/25 08:37:45;;;;;;;7.57;6.88;;;30.90;43.60;;;;;;4962472;28;20208;-75
2022/07/25 08:40:15;;;;;;;7.80;7.20;;;30.90;43.50;;;;;;4960685;28;20208;-76
2022/07/25 08:42:42;;;;;;;7.18;6.57;;;31.00;44.00;;;;;;4960483;28;20345;-77
2022/07/25 08:45:12;;;;;;;7.40;6.80;;;31.00;43.20;;;;;;4960254;28;20723;-75
2022/07/25 08:47:39;;;;;;;6.90;6.40;;;31.00;43.10;;;;;;4959741;28;20212;-76
2022/07/25 08:50:09;;;;;;;7.32;6.72;;;31.10;43.00;;;;;;4960663;28;20204;-76
2022/07/25 08:52:37;;;;;;;6.95;6.45;;;31.10;42.90;;;;;;4960939;28;20224;-75
2022/07/25 08:55:05;;;;;;;7.22;6.68;;;31.10;42.90;;;;;;4960620;28;20612;-76
2022/07/25 08:57:31;;;;;;;6.78;6.28;;;31.20;42.90;;;;;;4959809;28;20200;-76
2022/07/25 08:59:59;;;;;;;7.20;6.70;;;31.20;42.80;;;;;;4959553;28;20205;-77
2022/07/25 09:02:27;;;;;;;7.35;6.75;;;31.20;42.80;;;;;;4960274;28;20683;-77
2022/07/25 09:04:54;;;;;;;7.30;6.72;;;31.20;42.70;;;;;;4960353;28;20236;-77
2022/07/25 09:07:31;;;;;;;7.18;6.68;;;31.20;42.70;;;;;;4960628;28;20201;-75
2022/07/25 09:09:58;;;;;;;7.43;6.82;;;31.20;42.70;;;;;;4959534;28;20186;-77
2022/07/25 09:12:26;;;;;;;7.53;6.93;;;31.30;42.70;;;;;;4959085;28;20212;-77
2022/07/25 09:14:54;;;;;;;7.15;6.63;;;31.30;42.60;;;;;;4958570;28;20201;-76
2022/07/25 09:17:22;;;;;;;6.68;6.20;;;31.30;42.60;;;;;;4958608;28;20263;-76
2022/07/25 09:19:53;;;;;;;6.82;6.32;;;31.30;42.50;;;;;;4958957;28;20260;-76
2022/07/25 09:22:20;;;;;;;6.90;6.40;;;31.30;42.50;;;;;;4958575;28;20276;-73
2022/07/25 09:24:49;;;;;;;6.72;6.22;;;31.30;42.50;;;;;;4957773;28;20592;-74
2022/07/25 09:27:17;;;;;;;6.53;6.03;;;31.30;42.50;;;;;;4957968;28;20205;-75
2022/07/25 09:29:44;;;;;;;6.70;6.20;;;31.30;42.50;;;;;;4957644;28;20307;-75
2022/07/25 09:32:15;;;;;;;6.57;6.10;;;31.30;42.50;;;;;;4975260;28;20225;-74
2022/07/25 09:34:43;;;;;;;6.60;6.10;;;31.30;42.50;;;;;;4957848;28;20217;-76
2022/07/25 09:37:11;;;;;;;7.07;6.57;;;31.30;42.40;;;;;;4957845;28;20208;-76
2022/07/25 09:39:42;;;;;;;6.78;6.28;;;31.30;42.40;;;;;;4957705;28;20252;-75
2022/07/25 09:42:17;;;;;;;6.82;6.32;;;31.40;42.50;;;;;;4957612;28;20193;-75
2022/07/25 09:44:45;;;;;;;6.68;6.18;;;31.30;42.50;;;;;;4958758;28;20292;-75
2022/07/25 09:47:13;;;;;;;6.60;6.10;;;31.30;42.50;;;;;;4975723;28;20608;-74
2022/07/25 09:49:41;;;;;;;6.53;6.03;;;31.30;42.60;;;;;;4960658;28;20703;-75
2022/07/25 09:52:08;;;;;;;6.88;6.38;;;31.30;42.60;;;;;;4960452;28;20197;-74
2022/07/25 09:54:35;;;;;;;7.25;6.72;;;31.30;42.70;;;;;;4959240;28;20680;-74
2022/07/25 09:57:02;;;;;;;6.72;6.22;;;31.20;42.60;;;;;;4976598;28;20197;-75
2022/07/25 09:59:31;;;;;;;6.07;5.68;;;31.20;42.70;;;;;;4960527;28;20196;-75
2022/07/25 10:02:04;;;;;;;6.63;6.13;;;31.20;42.80;;;;;;4959505;28;20292;-74
2022/07/25 10:04:38;;;;;;;6.70;6.20;;;31.10;42.80;;;;;;4959757;28;20232;-74
2022/07/25 10:07:09;;;;;;;6.80;6.30;;;31.10;42.90;;;;;;4959212;28;20202;-75
2022/07/25 10:09:42;;;;;;;6.47;5.97;;;31.10;43.00;;;;;;4959140;28;20217;-73
2022/07/25 10:12:10;;;;;;;6.50;6.00;;;31.00;43.00;;;;;;4958049;28;20225;-74
2022/07/25 10:14:38;;;;;;;6.55;6.05;;;31.00;43.10;;;;;;4958032;28;20280;-75
2022/07/25 10:17:05;;;;;;;6.78;6.28;;;31.00;43.30;;;;;;4958530;28;20198;-73
2022/07/25 10:19:40;;;;;;;6.30;5.80;;;31.00;43.40;;;;;;4957784;28;20232;-75
2022/07/25 10:22:07;;;;;;;6.40;5.90;;;30.90;43.50;;;;;;4957491;28;20260;-76
2022/07/25 10:24:34;;;;;;;6.00;5.60;;;30.80;43.60;;;;;;4957548;28;20217;-74
2022/07/25 10:27:08;;;;;;;6.60;6.10;;;30.80;43.70;;;;;;4959872;28;20289;-74
2022/07/25 10:29:35;;;;;;;6.25;5.75;;;30.70;43.80;;;;;;4961669;28;20679;-75
2022/07/25 10:32:07;;;;;;;6.35;5.82;;;30.70;43.80;;;;;;4960681;28;20267;-74
2022/07/25 10:34:34;;;;;;;6.45;5.95;;;30.60;44.00;;;;;;4960842;28;20228;-75
2022/07/25 10:37:09;;;;;;;6.55;6.10;;;30.50;44.00;;;;;;4961016;28;20197;-74
2022/07/25 10:39:37;;;;;;;6.68;6.18;;;30.50;44.20;;;;;;4962014;28;20194;-75
2022/07/25 10:42:05;;;;;;;6.15;5.70;;;30.50;44.30;;;;;;4961457;28;20194;-76
2022/07/25 10:44:40;;;;;;;6.07;5.68;;;30.40;44.40;;;;;;4961902;28;20633;-75
2022/07/25 10:47:09;;;;;;;6.20;5.80;;;30.40;44.50;;;;;;4960948;28;20224;-76
2022/07/25 10:49:36;;;;;;;6.40;5.90;;;30.30;44.60;;;;;;4960242;28;20225;-75
2022/07/25 10:52:04;;;;;;;6.60;6.10;;;30.30;44.70;;;;;;4960158;28;20197;-75
2022/07/25 10:54:35;;;;;;;7.00;6.50;;;30.30;44.80;;;;;;4960339;28;20241;-75
2022/07/25 10:57:02;;;;;;;6.43;5.80;;;30.20;44.90;;;;;;4960312;28;20652;-75
2022/07/25 10:59:31;;;;;;;6.38;5.97;;;30.20;45.00;;;;;;4960303;28;20209;-75
2022/07/25 11:01:58;;;;;;;6.38;5.97;;;30.20;45.20;;;;;;4960046;28;20201;-74
2022/07/25 11:04:26;;;;;;;6.65;6.15;;;30.10;45.20;;;;;;4960281;28;20711;-75
2022/07/25 11:06:53;;;;;;;6.43;6.03;;;30.00;45.30;;;;;;4959950;28;20204;-76
2022/07/25 11:09:21;;;;;;;6.55;6.10;;;30.00;45.50;;;;;;4960053;28;20233;-75
2022/07/25 11:11:52;;;;;;;6.40;5.90;;;29.90;45.60;;;;;;4960149;28;20198;-75
2022/07/25 11:14:20;;;;;;;6.07;5.65;;;29.90;46.30;;;;;;4960519;28;20231;-75
2022/07/25 11:16:48;;;;;;;6.20;5.80;;;29.90;45.90;;;;;;4959956;28;20556;-76
2022/07/25 11:19:17;;;;;;;6.10;5.70;;;29.80;45.90;;;;;;4977677;28;20241;-74
2022/07/25 11:21:48;;;;;;;6.20;5.70;;;29.80;45.90;;;;;;4977409;28;20189;-74
2022/07/25 11:24:15;;;;;;;5.85;5.45;;;29.80;46.00;;;;;;4960934;28;20225;-74
2022/07/25 11:26:47;;;;;;;6.35;5.85;;;29.80;46.00;;;;;;4945934;28;20202;-74
2022/07/25 11:29:25;;;;;;;6.07;5.60;;;29.80;46.10;;;;;;4961669;28;20225;-75
2022/07/25 11:31:54;;;;;;;5.82;5.43;;;29.80;46.10;;;;;;4960353;28;20201;-76
2022/07/25 11:34:23;;;;;;;6.15;5.75;;;29.80;46.20;;;;;;4960403;28;20560;-75
2022/07/25 11:36:54;;;;;;;6.13;5.63;;;29.80;46.30;;;;;;4961038;28;20198;-76
2022/07/25 11:39:21;;;;;;;6.28;5.78;;;29.70;46.30;;;;;;4978118;28;20629;-76
2022/07/25 11:41:59;;;;;;;6.32;5.82;;;29.70;46.30;;;;;;4962724;28;20205;-75
2022/07/25 11:44:31;;;;;;;6.40;5.90;;;29.60;46.50;;;;;;4962673;28;20221;-75
2022/07/25 11:46:58;;;;;;;6.35;5.85;;;29.70;46.60;;;;;;4946238;28;20202;-73
2022/07/25 11:49:26;;;;;;;6.25;5.75;;;29.60;46.50;;;;;;4961401;28;20323;-74
2022/07/25 11:51:55;;;;;;;6.32;5.82;;;29.60;46.50;;;;;;4979244;28;20687;-76
2022/07/25 11:54:22;;;;;;;6.43;5.85;;;29.60;46.50;;;;;;4961645;28;20221;-73
2022/07/25 11:56:49;;;;;;;6.35;5.90;;;29.60;46.60;;;;;;4945715;28;20252;-73
2022/07/25 11:59:16;;;;;;;6.28;5.78;;;29.50;46.60;;;;;;4961528;28;20716;-75
2022/07/25 12:01:44;;;;;;;6.47;5.97;;;29.60;46.60;;;;;;4978853;28;20190;-74
2022/07/25 12:04:13;;;;;;;6.03;5.63;;;29.60;46.70;;;;;;4960870;28;20259;-73
2022/07/25 12:06:40;;;;;;;5.90;5.50;;;29.60;46.60;;;;;;4960896;28;20610;-75
2022/07/25 12:09:13;;;;;;;5.90;5.50;;;29.60;46.70;;;;;;4960877;28;20232;-75
2022/07/25 12:11:40;;;;;;;5.82;5.43;;;29.60;46.70;;;;;;4960165;28;20288;-75
2022/07/25 12:14:08;;;;;;;5.70;5.30;;;29.60;46.70;;;;;;4961030;28;20256;-75
2022/07/25 12:16:35;;;;;;;5.90;5.50;;;29.60;46.70;;;;;;4960681;28;20197;-73
2022/07/25 12:19:03;;;;;;;5.68;5.28;;;29.60;46.80;;;;;;4960503;28;20683;-75
2022/07/25 12:21:30;;;;;;;5.80;5.40;;;29.60;46.80;;;;;;4961727;28;20211;-74
2022/07/25 12:23:57;;;;;;;6.38;5.88;;;29.60;46.80;;;;;;4961338;28;20316;-76
2022/07/25 12:26:26;;;;;;;5.82;5.40;;;29.50;46.80;;;;;;4960219;28;20208;-75
2022/07/25 12:28:53;;;;;;;6.15;5.65;;;29.50;46.80;;;;;;4959657;28;20316;-76
2022/07/25 12:31:20;;;;;;;5.72;5.32;;;29.50;47.00;;;;;;4977646;28;20193;-76
2022/07/25 12:33:48;;;;;;;5.75;5.35;;;29.50;47.00;;;;;;5002965;23;20618;-67
2022/07/25 12:36:15;;;;;;;6.00;5.60;;;29.50;47.10;;;;;;5037008;28;20248;-67
2022/07/25 12:38:42;;;;;;;6.00;5.60;;;29.50;47.10;;;;;;5056183;28;20186;-66
2022/07/25 12:41:10;;;;;;;6.20;5.70;;;29.50;47.20;;;;;;5054867;28;20574;-67
2022/07/25 12:43:38;;;;;;;5.57;5.18;;;29.40;47.20;;;;;;5054943;28;20277;-67
2022/07/25 12:46:05;;;;;;;5.82;5.43;;;29.40;47.30;;;;;;5054463;28;20234;-67
2022/07/25 12:48:32;;;;;;;6.38;5.88;;;29.40;47.40;;;;;;5054190;28;20183;-66